Latest Weather Observations for Mount Magnet Airport

IDW60801

Issued at 5:33 pm WST Monday 17 December 2018 (issued every 10 minutes, with the page automatically refreshed every 10 minutes)

About weather observations | Map of weather stations | Latest weather observations for WA | Other Formats
Station Details ID: 007600 Name: MOUNT MAGNET AERO Lat: -28.12 Lon: 117.84 Height: 407.0 m
Data from the previous 72 hours. | See also: Recent months at Mount Magnet Airport
Date/Time
WST
Temp
°C
App
Temp
°C
Dew
Point
°C
Rel
Hum
%
Delta-T
°C
Wind Press
QNH
hPa
Press
MSL
hPa
Rain since
9am
mm
Dir  Spd
km/h
Gust
km/h
Spd
kts
Gust
kts
17/05:30pm 27.9 21.3 8.7 30 10.7 SSW 33 46 18 25 1009.3 1006.4 0.0
17/05:00pm 28.4 22.4 8.7 29 11.0 SSW 30 39 16 21 1008.9 1006.0 0.0
17/04:30pm 28.1 21.5 8.4 29 10.9 SSW 33 46 18 25 1008.5 1005.7 0.0
17/04:00pm 28.7 22.1 8.4 28 11.3 SSW 33 52 18 28 1008.2 1005.4 0.0
17/03:36pm 28.1 22.2 8.9 30 10.8 SW 30 48 16 26 1008.4 1005.6 0.0
17/03:30pm 28.6 22.6 8.8 29 11.1 SW 30 39 16 21 1008.4 1005.6 0.0
17/03:01pm 28.4 22.9 9.2 30 10.8 SSW 28 54 15 29 1008.5 1005.7 0.0
17/03:00pm 28.4 23.3 9.2 30 10.8 SSW 26 54 14 29 1008.5 1005.7 0.0
17/02:52pm 28.9 22.6 9.1 29 11.2 SW 32 50 17 27 1008.6 1005.8 0.0
17/02:30pm 28.5 23.5 9.7 31 10.7 SW 26 39 14 21 1008.6 1005.8 0.0
17/02:00pm 27.1 21.8 9.9 34 9.8 SSW 28 39 15 21 1009.0 1006.1 0.0
17/01:30pm 27.8 23.4 10.5 34 9.9 SSW 24 35 13 19 1009.1 1006.2 0.0
17/01:00pm 26.2 23.1 10.4 37 9.0 SSW 17 33 9 18 1009.3 1006.4 0.0
17/12:30pm 25.4 21.0 10.4 39 8.5 SW 24 41 13 22 1009.6 1006.7 0.0
17/12:00pm 23.9 20.0 10.9 44 7.4 SW 22 39 12 21 1009.8 1006.9 0.0
17/11:30am 23.0 19.5 10.8 46 6.9 SSW 20 33 11 18 1010.1 1007.3 0.0
17/11:00am 22.4 18.9 10.9 48 6.5 SSW 20 32 11 17 1010.4 1007.6 0.0
17/10:30am 21.6 18.7 11.0 51 6.0 SW 17 28 9 15 1010.6 1007.8 0.0
17/10:00am 20.8 17.4 11.2 54 5.4 SSW 20 28 11 15 1010.8 1008.0 0.0
17/09:30am 20.7 17.3 11.1 54 5.4 SSW 20 28 11 15 1010.7 1007.9 0.0
17/09:00am 19.3 15.9 11.1 59 4.6 S 20 28 11 15 1010.7 1007.9 0.0
17/08:30am 19.0 15.1 10.8 59 4.5 SSW 22 30 12 16 1010.5 1007.7 0.0
17/08:00am 18.7 13.6 10.5 59 4.5 SSW 28 35 15 19 1010.0 1007.1 0.0
17/07:30am 18.4 12.8 10.3 59 4.4 SSW 30 35 16 19 1009.5 1006.6 0.0
17/07:00am 18.0 12.7 9.9 59 4.4 SSW 28 41 15 22 1009.2 1006.3 0.0
17/06:30am 17.7 12.5 10.1 61 4.1 SW 28 39 15 21 1008.8 1005.9 0.0
17/06:00am 17.3 13.7 11.8 70 3.1 SW 22 32 12 17 1008.1 1005.3 0.0
17/05:30am 16.9 14.1 12.6 76 2.4 WSW 19 24 10 13 1007.6 1004.7 0.0
17/05:00am 16.7 14.0 12.8 78 2.2 WSW 19 30 10 16 1007.0 1004.1 0.0
17/04:30am 16.9 13.9 12.0 73 2.7 W 19 26 10 14 1006.6 1003.7 0.0
17/04:00am 16.8 13.7 11.5 71 2.9 WSW 19 24 10 13 1006.4 1003.5 0.0
17/03:30am 16.9 13.6 11.0 68 3.2 W 19 22 10 12 1006.2 1003.3 0.0
17/03:00am 17.1 15.6 10.7 66 3.5 WNW 9 11 5 6 1005.1 1002.2 0.0
17/02:30am 17.3 15.5 10.7 65 3.6 W 11 15 6 8 1005.6 1002.8 0.0
17/02:00am 17.5 14.5 10.6 64 3.8 WSW 17 22 9 12 1006.0 1003.2 0.0
17/01:30am 17.8 14.3 10.9 64 3.8 WSW 20 28 11 15 1006.2 1003.3 0.0
17/01:00am 18.2 15.1 10.3 60 4.3 W 17 24 9 13 1006.5 1003.6 0.0
17/12:30am 18.5 14.2 10.8 61 4.2 W 24 33 13 18 1006.5 1003.6 0.0
17/12:00am 19.1 15.3 9.9 55 5.0 W 20 30 11 16 1006.6 1003.7 0.0
 
Date/Time
WST
Temp
°C
App
Temp
°C
Dew
Point
°C
Rel
Hum
%
Delta-T
°C
Wind Press
QNH
hPa
Press
MSL
hPa
Rain since
9am
mm
Dir  Spd
km/h
Gust
km/h
Spd
kts
Gust
kts
16/11:30pm 19.8 15.1 9.4 51 5.6 W 24 32 13 17 1006.7 1003.8 0.0
16/11:00pm 20.5 16.4 8.8 47 6.3 W 20 26 11 14 1006.7 1003.8 0.0
16/10:30pm 20.8 16.9 8.8 46 6.5 WSW 19 26 10 14 1006.6 1003.7 0.0
16/10:00pm 20.8 17.2 9.7 49 6.1 SW 19 28 10 15 1006.7 1003.8 0.0
16/09:30pm 20.5 15.4 10.6 53 5.5 SW 28 35 15 19 1006.8 1003.9 0.0
16/09:00pm 21.0 16.7 10.8 52 5.7 WSW 24 35 13 19 1007.0 1004.1 0.0
16/08:30pm 21.2 16.2 11.0 52 5.7 WSW 28 39 15 21 1006.9 1004.0 0.0
16/08:00pm 21.4 16.2 11.7 54 5.5 W 30 43 16 23 1006.2 1003.3 0.0
16/07:32pm 21.8 13.9 11.5 52 5.8 W 44 63 24 34 1005.6 1002.8 0.0
16/07:30pm 21.8 13.5 11.5 52 5.8 W 46 63 25 34 1005.5 1002.6 0.0
16/07:18pm 22.8 14.7 12.1 51 6.2 W 46 70 25 38 1005.1 1002.2 0.0
16/07:12pm 24.1 18.8 11.4 45 7.3 WNW 30 70 16 38 1004.7 1001.8 0.0
16/07:00pm 27.0 21.4 5.3 25 11.4 WNW 24 32 13 17 1004.4 1001.5 0.0
16/06:30pm 27.2 22.5 6.0 26 11.2 W 20 24 11 13 1004.2 1001.3 0.0
16/06:00pm 27.6 23.2 6.4 26 11.4 W 19 26 10 14 1003.9 1001.0 0.0
16/05:30pm 27.3 22.2 6.1 26 11.3 WNW 22 32 12 17 1003.6 1000.7 0.0
16/05:00pm 27.7 23.8 7.0 27 11.3 NW 17 33 9 18 1003.4 1000.6 0.0
16/04:30pm 28.0 23.6 7.3 27 11.3 W 20 35 11 19 1003.6 1000.7 0.0
16/04:00pm 28.9 23.8 7.5 26 11.8 WNW 24 35 13 19 1003.7 1000.8 0.0
16/03:30pm 29.0 23.1 7.6 26 11.8 W 28 41 15 22 1003.9 1001.0 0.0
16/03:00pm 27.1 22.1 8.0 30 10.5 WSW 24 37 13 20 1004.3 1001.4 0.0
16/02:30pm 27.3 22.7 8.2 30 10.5 WSW 22 32 12 17 1004.5 1001.6 0.0
16/02:00pm 26.2 21.4 8.7 33 9.7 WSW 24 37 13 20 1004.9 1002.0 0.0
16/01:30pm 25.6 21.2 9.0 35 9.2 WSW 22 37 12 20 1005.2 1002.3 0.0
16/01:00pm 26.0 20.6 9.4 35 9.3 W 28 46 15 25 1005.6 1002.8 0.0
16/12:42pm 25.3 19.8 9.2 36 8.9 W 28 46 15 25 1005.7 1002.9 0.0
16/12:30pm 25.3 19.5 9.6 37 8.8 WSW 30 43 16 23 1005.9 1003.1 0.0
16/12:00pm 24.2 19.0 10.1 41 7.9 W 28 46 15 25 1006.2 1003.3 0.0
16/11:59am 24.3 19.0 9.8 40 8.1 WSW 28 46 15 25 1006.2 1003.3 0.0
16/11:30am 23.4 18.4 10.8 45 7.1 WSW 28 41 15 22 1006.3 1003.4 0.0
16/11:00am 23.7 18.6 10.7 44 7.4 W 28 35 15 19 1006.4 1003.5 0.0
16/10:30am 24.9 20.1 10.4 40 8.2 W 26 43 14 23 1006.5 1003.6 0.0
16/10:00am 23.0 18.2 10.4 45 7.1 W 26 35 14 19 1006.6 1003.7 0.0
16/09:30am 22.4 18.1 10.9 48 6.5 W 24 33 13 18 1006.7 1003.8 0.0
16/09:00am 21.9 17.6 10.7 49 6.3 W 24 33 13 18 1006.9 1004.0 0.0
16/08:30am 20.7 17.1 10.5 52 5.7 W 20 33 11 18 1007.0 1004.1 0.0
16/08:00am 19.9 16.1 11.1 57 4.9 W 22 28 12 15 1007.2 1004.3 0.0
16/07:30am 19.4 15.1 10.7 57 4.8 W 24 32 13 17 1007.1 1004.2 0.0
16/07:00am 18.9 14.7 11.2 61 4.3 W 24 30 13 16 1007.1 1004.2 0.0
16/06:30am 18.6 14.0 10.9 61 4.3 W 26 35 14 19 1006.9 1004.0 0.0
16/06:00am 18.5 14.8 11.6 64 3.9 W 22 30 12 16 1006.6 1003.7 0.0
16/05:30am 18.2 14.1 11.5 65 3.7 WSW 24 32 13 17 1006.4 1003.5 0.0
16/05:00am 18.2 14.5 11.5 65 3.7 WSW 22 30 12 16 1006.2 1003.3 0.0
16/04:30am 18.0 13.6 11.6 66 3.6 WSW 26 33 14 18 1005.8 1003.0 0.0
16/04:00am 18.1 13.8 11.9 67 3.5 WSW 26 35 14 19 1005.5 1002.6 0.0
16/03:30am 18.0 13.7 12.0 68 3.4 WSW 26 37 14 20 1005.0 1002.1 0.0
16/03:00am 17.8 13.5 12.0 69 3.3 WSW 26 35 14 19 1004.9 1002.0 0.0
16/02:30am 18.0 13.0 12.2 69 3.3 WSW 30 39 16 21 1004.8 1001.9 0.0
16/02:00am 18.1 13.5 12.3 69 3.3 WSW 28 39 15 21 1004.8 1001.9 0.0
16/01:30am 18.3 13.4 12.5 69 3.3 WSW 30 37 16 20 1004.7 1001.8 0.0
16/01:00am 18.3 13.8 12.5 69 3.3 W 28 35 15 19 1004.8 1001.9 0.0
16/12:30am 18.6 14.1 12.6 68 3.4 W 28 35 15 19 1005.1 1002.2 0.0
16/12:00am 19.0 14.2 13.0 68 3.5 WSW 30 41 16 22 1005.5 1002.6 0.0
 
Date/Time
WST
Temp
°C
App
Temp
°C
Dew
Point
°C
Rel
Hum
%
Delta-T
°C
Wind Press
QNH
hPa
Press
MSL
hPa
Rain since
9am
mm
Dir  Spd
km/h
Gust
km/h
Spd
kts
Gust
kts
15/11:30pm 19.3 14.5 13.0 67 3.6 WSW 30 41 16 22 1005.7 1002.9 0.0
15/11:00pm 20.0 15.3 13.2 65 4.0 WSW 30 37 16 20 1005.8 1003.0 0.0
15/10:30pm 20.8 16.2 13.5 63 4.3 WSW 30 41 16 22 1006.0 1003.2 0.0
15/10:00pm 21.9 16.9 13.5 59 5.0 WSW 32 41 17 22 1005.7 1002.9 0.0
15/09:30pm 23.2 18.2 13.4 54 5.8 WSW 32 41 17 22 1005.4 1002.5 0.0
15/09:00pm 24.4 20.0 13.0 49 6.7 WSW 28 37 15 20 1005.3 1002.4 0.0
15/08:30pm 25.6 22.0 13.1 46 7.4 WSW 24 33 13 18 1005.1 1002.2 0.0
15/08:00pm 26.7 23.0 12.7 42 8.3 WSW 24 35 13 19 1004.8 1001.9 0.0
15/07:30pm 27.5 22.9 12.3 39 9.0 WSW 28 39 15 21 1004.4 1001.5 0.0
15/07:00pm 28.3 22.7 11.4 35 9.9 W 32 39 17 21 1004.0 1001.1 0.0
15/06:30pm 29.6 24.8 11.6 33 10.6 WSW 28 39 15 21 1003.7 1000.8 0.0
15/06:00pm 30.2 25.0 11.7 32 11.0 W 30 39 16 21 1003.4 1000.6 0.0
15/05:30pm 30.4 24.6 11.4 31 11.2 W 33 43 18 23 1003.2 1000.3 0.0
15/05:00pm 31.0 24.9 11.9 31 11.4 W 35 46 19 25 1002.9 1000.0 0.0
15/04:30pm 32.3 26.3 12.0 29 12.2 W 35 46 19 25 1002.6 999.7 0.0
15/04:00pm 33.4 27.7 11.3 26 13.2 W 32 44 17 24 1002.5 999.6 0.0
15/03:30pm 33.8 28.2 11.6 26 13.3 W 32 48 17 26 1002.4 999.5 0.0
15/03:00pm 33.9 28.2 11.1 25 13.6 WNW 32 44 17 24 1002.3 999.4 0.0
15/02:30pm 34.3 28.1 10.2 23 14.2 WNW 33 46 18 25 1002.4 999.5 0.0
15/02:28pm 33.8 27.3 10.4 24 13.8 WNW 35 46 19 25 1002.5 999.6 0.0
15/02:25pm 33.9 26.9 9.9 23 14.0 WNW 37 46 20 25 1002.5 999.6 0.0
15/02:21pm 34.6 28.3 11.1 24 14.0 WNW 35 46 19 25 1002.4 999.5 0.0
15/02:00pm 34.7 27.9 10.5 23 14.4 WNW 37 52 20 28 1002.5 999.6 0.0
15/01:33pm 34.6 28.7 10.4 23 14.3 WNW 32 50 17 27 1002.8 999.9 0.0
15/01:30pm 35.5 28.8 9.8 21 15.1 WNW 35 50 19 27 1002.9 1000.0 0.0
15/01:00pm 35.0 28.2 9.4 21 15.0 NW 35 54 19 29 1003.1 1000.2 0.0
15/12:35pm 33.3 27.2 10.6 25 13.4 NW 33 50 18 27 1003.4 1000.6 0.0
15/12:30pm 34.2 28.2 10.1 23 14.1 NW 32 43 17 23 1003.6 1000.7 0.0
15/12:00pm 33.8 27.9 10.4 24 13.8 NW 32 43 17 23 1004.0 1001.1 0.0
15/11:30am 34.2 27.8 9.4 22 14.4 NW 33 46 18 25 1003.9 1001.0 0.0
15/11:10am 34.7 28.5 7.7 19 15.3 NNW 30 52 16 28 1003.7 1000.8 0.0
15/11:00am 35.3 27.9 4.8 15 16.6 NNW 33 48 18 26 1003.9 1001.0 0.0
15/10:30am 34.8 26.7 1.2 12 17.2 N 33 46 18 25 1004.0 1001.1 0.0
15/10:00am 35.4 27.0 -2.3 9 18.4 N 32 46 17 25 1004.1 1001.2 0.0
15/09:30am 34.8 26.2 -4.3 8 18.3 NNE 32 44 17 24 1004.4 1001.5 0.0
15/09:12am 33.8 24.5 -5.0 8 17.8 NNE 35 54 19 29 1004.5 1001.6 0.0
15/09:00am 33.9 24.7 -4.9 8 18.0 NNE 35 48 19 26 1004.6 1001.7 0.0
15/08:30am 33.0 23.5 -4.0 9 17.2 NNE 37 52 20 28 1004.7 1001.8 0.0
15/08:00am 32.4 22.8 -4.5 9 17.0 NNE 37 56 20 30 1004.9 1002.0 0.0
15/07:34am 31.1 22.5 -4.1 10 16.1 NE 32 50 17 27 1005.1 1002.2 0.0
15/07:30am 31.1 22.5 -4.1 10 16.1 NE 32 41 17 22 1005.1 1002.2 0.0
15/07:00am 29.3 22.4 -3.0 12 14.9 NE 24 33 13 18 1005.3 1002.4 0.0
15/06:30am 28.1 21.9 -2.9 13 14.1 ENE 20 28 11 15 1005.3 1002.4 0.0
15/06:00am 27.2 22.0 -2.6 14 13.6 ENE 15 20 8 11 1005.4 1002.5 0.0
15/05:30am 27.3 22.1 -2.5 14 13.6 NE 15 20 8 11 1005.5 1002.6 0.0
15/05:00am 27.3 22.5 -2.5 14 13.7 NE 13 15 7 8 1005.4 1002.5 0.0
15/04:30am 27.4 22.6 -2.4 14 13.6 NE 13 15 7 8 1005.1 1002.2 0.0
15/04:00am 27.8 22.7 -2.1 14 13.9 NE 15 19 8 10 1004.9 1002.0 0.0
15/03:30am 27.9 22.8 -2.0 14 13.8 NE 15 19 8 10 1004.6 1001.7 0.0
15/03:00am 28.2 23.5 -1.8 14 14.0 NE 13 17 7 9 1004.3 1001.4 0.0
15/02:30am 28.2 23.1 -1.8 14 14.0 NE 15 20 8 11 1004.1 1001.2 0.0
15/02:00am 28.8 23.8 -1.3 14 14.3 ENE 15 20 8 11 1004.1 1001.2 0.0
15/01:30am 29.1 24.0 -2.1 13 14.6 ENE 15 19 8 10 1004.1 1001.2 0.0
15/01:00am 29.7 24.6 -1.6 13 14.8 ENE 15 20 8 11 1004.5 1001.6 0.0
15/12:30am 29.9 25.2 -1.5 13 14.9 ENE 13 17 7 9 1004.9 1002.0 0.0
15/12:00am 30.5 25.5 -1.0 13 15.2 ENE 15 20 8 11 1005.1 1002.2 0.0
 
Date/Time
WST
Temp
°C
App
Temp
°C
Dew
Point
°C
Rel
Hum
%
Delta-T
°C
Wind Press
QNH
hPa
Press
MSL
hPa
Rain since
9am
mm
Dir  Spd
km/h
Gust
km/h
Spd
kts
Gust
kts
14/11:30pm 31.0 25.3 -0.6 13 15.3 ENE 19 22 10 12 1005.2 1002.3 0.0
14/11:00pm 31.6 25.8 -1.2 12 15.9 E 19 28 10 15 1005.3 1002.4 0.0
14/10:30pm 32.1 26.4 -0.9 12 16.0 E 19 24 10 13 1005.6 1002.8 0.0
14/10:00pm 32.7 26.5 -0.4 12 16.4 E 22 30 12 16 1005.6 1002.8 0.0
14/09:30pm 33.3 27.2 0.1 12 16.5 E 22 35 12 19 1005.6 1002.8 0.0
14/09:00pm 33.8 27.2 -0.7 11 17.1 E 24 35 13 19 1005.4 1002.5 0.0
14/08:30pm 34.4 27.8 -0.3 11 17.3 E 24 33 13 18 1005.4 1002.5 0.0
14/08:00pm 35.0 28.9 0.2 11 17.6 E 22 33 12 18 1005.6 1002.8 0.0
14/07:30pm 35.6 29.1 0.6 11 17.8 E 24 32 13 17 1005.7 1002.9 0.0
14/07:00pm 36.2 30.6 1.1 11 18.1 E 20 28 11 15 1005.8 1003.0 0.0
14/06:30pm 37.1 31.6 1.8 11 18.5 E 20 28 11 15 1005.8 1003.0 0.0
14/06:00pm 37.6 32.1 2.1 11 18.8 E 20 28 11 15 1005.9 1003.1 0.0

Other Formats:

Comma delimited format used in spreadsheet applications
http://www.bom.gov.au/fwo/IDW60801/IDW60801.94429.axf

JavaScript Object Notation format (JSON) in row-major order
http://www.bom.gov.au/fwo/IDW60801/IDW60801.94429.json